sensor_id;sensor_type;location;lat;lon;timestamp;temperature;humidity
32650;DHT22;19055;51.064;3.712;2022-10-23T00:00:20;15.80;99.90
32650;DHT22;19055;51.064;3.712;2022-10-23T00:02:52;15.80;99.90
32650;DHT22;19055;51.064;3.712;2022-10-23T00:05:19;15.70;99.90
32650;DHT22;19055;51.064;3.712;2022-10-23T00:07:48;15.80;99.90
32650;DHT22;19055;51.064;3.712;2022-10-23T00:10:13;15.70;99.90
32650;DHT22;19055;51.064;3.712;2022-10-23T00:12:39;15.70;99.90
32650;DHT22;19055;51.064;3.712;2022-10-23T00:15:05;15.70;99.90
32650;DHT22;19055;51.064;3.712;2022-10-23T00:17:31;15.70;99.90
32650;DHT22;19055;51.064;3.712;2022-10-23T00:19:59;15.70;99.90
32650;DHT22;19055;51.064;3.712;2022-10-23T00:22:25;15.80;99.90
32650;DHT22;19055;51.064;3.712;2022-10-23T00:24:51;15.70;99.90
32650;DHT22;19055;51.064;3.712;2022-10-23T00:27:16;15.70;99.90
32650;DHT22;19055;51.064;3.712;2022-10-23T00:29:45;15.70;99.90
32650;DHT22;19055;51.064;3.712;2022-10-23T00:32:11;15.80;99.90
32650;DHT22;19055;51.064;3.712;2022-10-23T00:34:36;15.80;99.90
32650;DHT22;19055;51.064;3.712;2022-10-23T00:37:02;15.80;99.90
32650;DHT22;19055;51.064;3.712;2022-10-23T00:39:28;15.70;99.90
32650;DHT22;19055;51.064;3.712;2022-10-23T00:41:54;15.80;99.90
32650;DHT22;19055;51.064;3.712;2022-10-23T00:46:45;15.80;99.90
32650;DHT22;19055;51.064;3.712;2022-10-23T00:49:11;15.70;99.90
32650;DHT22;19055;51.064;3.712;2022-10-23T00:51:43;15.70;99.90
32650;DHT22;19055;51.064;3.712;2022-10-23T00:54:11;15.70;99.90
32650;DHT22;19055;51.064;3.712;2022-10-23T00:56:37;15.80;99.90
32650;DHT22;19055;51.064;3.712;2022-10-23T00:59:03;15.80;99.90
32650;DHT22;19055;51.064;3.712;2022-10-23T01:01:29;15.80;99.90
32650;DHT22;19055;51.064;3.712;2022-10-23T01:03:55;15.80;99.90
32650;DHT22;19055;51.064;3.712;2022-10-23T01:06:34;15.90;99.90
32650;DHT22;19055;51.064;3.712;2022-10-23T01:09:14;15.90;99.90
32650;DHT22;19055;51.064;3.712;2022-10-23T01:34:33;15.70;99.90
32650;DHT22;19055;51.064;3.712;2022-10-23T01:37:02;15.70;99.90
32650;DHT22;19055;51.064;3.712;2022-10-23T01:39:36;15.80;99.90
32650;DHT22;19055;51.064;3.712;2022-10-23T01:42:04;15.80;99.90
32650;DHT22;19055;51.064;3.712;2022-10-23T01:44:34;15.80;99.90
32650;DHT22;19055;51.064;3.712;2022-10-23T01:47:01;15.80;99.90
32650;DHT22;19055;51.064;3.712;2022-10-23T01:49:30;15.80;99.90
32650;DHT22;19055;51.064;3.712;2022-10-23T01:51:58;15.90;99.90
32650;DHT22;19055;51.064;3.712;2022-10-23T01:54:27;15.90;99.90
32650;DHT22;19055;51.064;3.712;2022-10-23T01:56:54;15.90;99.90
32650;DHT22;19055;51.064;3.712;2022-10-23T01:59:27;15.90;99.90
32650;DHT22;19055;51.064;3.712;2022-10-23T02:01:55;15.90;99.90
32650;DHT22;19055;51.064;3.712;2022-10-23T02:04:24;16.00;99.90
32650;DHT22;19055;51.064;3.712;2022-10-23T02:06:51;16.00;99.90
32650;DHT22;19055;51.064;3.712;2022-10-23T02:09:17;16.00;99.90
32650;DHT22;19055;51.064;3.712;2022-10-23T02:11:46;15.90;99.90
32650;DHT22;19055;51.064;3.712;2022-10-23T02:16:53;15.90;99.90
32650;DHT22;19055;51.064;3.712;2022-10-23T02:19:29;15.80;99.90
32650;DHT22;19055;51.064;3.712;2022-10-23T02:22:09;15.80;99.90
32650;DHT22;19055;51.064;3.712;2022-10-23T02:24:44;15.90;99.90
32650;DHT22;19055;51.064;3.712;2022-10-23T02:27:29;15.90;99.90
32650;DHT22;19055;51.064;3.712;2022-10-23T02:29:59;15.90;99.90
32650;DHT22;19055;51.064;3.712;2022-10-23T02:32:27;15.90;99.90
32650;DHT22;19055;51.064;3.712;2022-10-23T02:34:53;15.80;99.90
32650;DHT22;19055;51.064;3.712;2022-10-23T02:37:19;15.70;99.90
32650;DHT22;19055;51.064;3.712;2022-10-23T02:39:45;15.70;99.90
32650;DHT22;19055;51.064;3.712;2022-10-23T02:42:17;15.70;99.90
32650;DHT22;19055;51.064;3.712;2022-10-23T02:47:18;15.60;99.90
32650;DHT22;19055;51.064;3.712;2022-10-23T02:49:54;15.60;99.90
32650;DHT22;19055;51.064;3.712;2022-10-23T02:54:57;15.70;99.90
32650;DHT22;19055;51.064;3.712;2022-10-23T03:02:35;15.80;99.90
32650;DHT22;19055;51.064;3.712;2022-10-23T03:05:02;15.80;99.90
32650;DHT22;19055;51.064;3.712;2022-10-23T03:07:28;15.80;99.90
32650;DHT22;19055;51.064;3.712;2022-10-23T03:10:03;15.90;99.90
32650;DHT22;19055;51.064;3.712;2022-10-23T03:12:29;15.90;99.90
32650;DHT22;19055;51.064;3.712;2022-10-23T03:14:55;15.90;99.90
32650;DHT22;19055;51.064;3.712;2022-10-23T03:17:21;15.90;99.90
32650;DHT22;19055;51.064;3.712;2022-10-23T03:19:46;15.90;99.90
32650;DHT22;19055;51.064;3.712;2022-10-23T03:22:13;15.70;99.90
32650;DHT22;19055;51.064;3.712;2022-10-23T03:24:39;15.70;99.90
32650;DHT22;19055;51.064;3.712;2022-10-23T03:27:06;15.60;99.90
32650;DHT22;19055;51.064;3.712;2022-10-23T03:29:31;15.60;99.90
32650;DHT22;19055;51.064;3.712;2022-10-23T03:31:57;15.40;99.90
32650;DHT22;19055;51.064;3.712;2022-10-23T03:34:23;15.30;99.90
32650;DHT22;19055;51.064;3.712;2022-10-23T03:36:50;15.30;99.90
32650;DHT22;19055;51.064;3.712;2022-10-23T03:39:18;15.30;99.90
32650;DHT22;19055;51.064;3.712;2022-10-23T03:41:44;15.40;99.90
32650;DHT22;19055;51.064;3.712;2022-10-23T03:44:10;15.50;99.90
32650;DHT22;19055;51.064;3.712;2022-10-23T03:46:35;15.50;99.90
32650;DHT22;19055;51.064;3.712;2022-10-23T03:49:02;15.50;99.90
32650;DHT22;19055;51.064;3.712;2022-10-23T03:51:28;15.60;99.90
32650;DHT22;19055;51.064;3.712;2022-10-23T03:53:56;15.60;99.90
32650;DHT22;19055;51.064;3.712;2022-10-23T03:56:21;15.50;99.90
32650;DHT22;19055;51.064;3.712;2022-10-23T03:58:47;15.50;99.90
32650;DHT22;19055;51.064;3.712;2022-10-23T04:01:13;15.50;99.90
32650;DHT22;19055;51.064;3.712;2022-10-23T04:03:39;15.50;99.90
32650;DHT22;19055;51.064;3.712;2022-10-23T04:06:05;15.50;99.90
32650;DHT22;19055;51.064;3.712;2022-10-23T04:08:30;15.30;99.90
32650;DHT22;19055;51.064;3.712;2022-10-23T04:10:56;15.20;99.90
32650;DHT22;19055;51.064;3.712;2022-10-23T04:13:38;15.20;99.90
32650;DHT22;19055;51.064;3.712;2022-10-23T04:16:04;15.20;99.90
32650;DHT22;19055;51.064;3.712;2022-10-23T04:18:29;15.20;99.90
32650;DHT22;19055;51.064;3.712;2022-10-23T04:20:55;15.20;99.90
32650;DHT22;19055;51.064;3.712;2022-10-23T04:23:21;15.20;99.90
32650;DHT22;19055;51.064;3.712;2022-10-23T04:25:47;15.20;99.90
32650;DHT22;19055;51.064;3.712;2022-10-23T04:28:12;15.10;99.90
32650;DHT22;19055;51.064;3.712;2022-10-23T04:30:39;15.10;99.90
32650;DHT22;19055;51.064;3.712;2022-10-23T04:33:09;15.10;99.90
32650;DHT22;19055;51.064;3.712;2022-10-23T04:35:34;15.10;99.90
32650;DHT22;19055;51.064;3.712;2022-10-23T04:38:00;15.10;99.90
32650;DHT22;19055;51.064;3.712;2022-10-23T04:40:26;15.20;99.90
32650;DHT22;19055;51.064;3.712;2022-10-23T04:42:53;15.20;99.90
32650;DHT22;19055;51.064;3.712;2022-10-23T04:45:18;15.20;99.90
32650;DHT22;19055;51.064;3.712;2022-10-23T04:47:44;15.20;99.90
32650;DHT22;19055;51.064;3.712;2022-10-23T04:50:10;15.20;99.90
32650;DHT22;19055;51.064;3.712;2022-10-23T04:52:54;15.20;99.90
32650;DHT22;19055;51.064;3.712;2022-10-23T04:55:46;15.20;99.90
32650;DHT22;19055;51.064;3.712;2022-10-23T04:58:18;15.10;99.90
32650;DHT22;19055;51.064;3.712;2022-10-23T05:00:44;14.90;99.90
32650;DHT22;19055;51.064;3.712;2022-10-23T05:03:14;14.80;99.90
32650;DHT22;19055;51.064;3.712;2022-10-23T05:05:40;14.80;99.90
32650;DHT22;19055;51.064;3.712;2022-10-23T05:08:23;14.80;99.90
32650;DHT22;19055;51.064;3.712;2022-10-23T05:11:07;14.80;99.90
32650;DHT22;19055;51.064;3.712;2022-10-23T05:13:38;14.90;99.90
32650;DHT22;19055;51.064;3.712;2022-10-23T05:16:03;14.80;99.90
32650;DHT22;19055;51.064;3.712;2022-10-23T05:18:39;14.80;99.90
32650;DHT22;19055;51.064;3.712;2022-10-23T05:21:09;14.80;99.90
32650;DHT22;19055;51.064;3.712;2022-10-23T05:23:40;14.80;99.90
32650;DHT22;19055;51.064;3.712;2022-10-23T05:26:07;14.90;99.90
32650;DHT22;19055;51.064;3.712;2022-10-23T05:28:34;14.90;99.90
32650;DHT22;19055;51.064;3.712;2022-10-23T05:31:00;14.80;99.90
32650;DHT22;19055;51.064;3.712;2022-10-23T05:33:28;14.80;99.90
32650;DHT22;19055;51.064;3.712;2022-10-23T05:35:54;14.80;99.90
32650;DHT22;19055;51.064;3.712;2022-10-23T05:38:20;14.80;99.90
32650;DHT22;19055;51.064;3.712;2022-10-23T05:40:46;14.80;99.90
32650;DHT22;19055;51.064;3.712;2022-10-23T05:43:16;14.90;99.90
32650;DHT22;19055;51.064;3.712;2022-10-23T05:45:57;14.90;99.90
32650;DHT22;19055;51.064;3.712;2022-10-23T05:48:41;14.80;99.90
32650;DHT22;19055;51.064;3.712;2022-10-23T05:51:08;14.80;99.90
32650;DHT22;19055;51.064;3.712;2022-10-23T05:53:44;14.80;99.90
32650;DHT22;19055;51.064;3.712;2022-10-23T05:56:17;14.80;99.90
32650;DHT22;19055;51.064;3.712;2022-10-23T05:58:51;14.80;99.90
32650;DHT22;19055;51.064;3.712;2022-10-23T06:01:28;14.80;99.90
32650;DHT22;19055;51.064;3.712;2022-10-23T06:04:01;14.90;99.90
32650;DHT22;19055;51.064;3.712;2022-10-23T06:06:47;15.00;99.90
32650;DHT22;19055;51.064;3.712;2022-10-23T06:09:13;15.00;99.90
32650;DHT22;19055;51.064;3.712;2022-10-23T06:11:39;15.10;99.90
32650;DHT22;19055;51.064;3.712;2022-10-23T06:14:11;15.20;99.90
32650;DHT22;19055;51.064;3.712;2022-10-23T06:16:37;15.10;99.90
32650;DHT22;19055;51.064;3.712;2022-10-23T06:19:03;15.10;99.90
32650;DHT22;19055;51.064;3.712;2022-10-23T06:21:29;15.10;99.90
32650;DHT22;19055;51.064;3.712;2022-10-23T06:23:55;15.20;99.90
32650;DHT22;19055;51.064;3.712;2022-10-23T06:26:20;15.20;99.90
32650;DHT22;19055;51.064;3.712;2022-10-23T06:29:12;15.30;99.90
32650;DHT22;19055;51.064;3.712;2022-10-23T06:31:40;15.40;99.90
32650;DHT22;19055;51.064;3.712;2022-10-23T06:34:05;15.50;99.90
32650;DHT22;19055;51.064;3.712;2022-10-23T06:36:31;15.50;99.90
32650;DHT22;19055;51.064;3.712;2022-10-23T06:39:27;15.50;99.90
32650;DHT22;19055;51.064;3.712;2022-10-23T06:42:08;15.50;99.90
32650;DHT22;19055;51.064;3.712;2022-10-23T06:44:52;15.50;99.90
32650;DHT22;19055;51.064;3.712;2022-10-23T06:47:50;15.60;99.90
32650;DHT22;19055;51.064;3.712;2022-10-23T06:50:35;15.60;99.90
32650;DHT22;19055;51.064;3.712;2022-10-23T06:53:05;15.60;99.90
32650;DHT22;19055;51.064;3.712;2022-10-23T06:55:32;15.60;99.90
32650;DHT22;19055;51.064;3.712;2022-10-23T06:57:58;15.70;99.90
32650;DHT22;19055;51.064;3.712;2022-10-23T07:00:24;15.80;99.90
32650;DHT22;19055;51.064;3.712;2022-10-23T07:02:51;15.80;99.90
32650;DHT22;19055;51.064;3.712;2022-10-23T07:05:17;15.90;99.90
32650;DHT22;19055;51.064;3.712;2022-10-23T07:07:43;15.90;99.90
32650;DHT22;19055;51.064;3.712;2022-10-23T07:10:12;15.90;99.90
32650;DHT22;19055;51.064;3.712;2022-10-23T07:12:40;16.00;99.90
32650;DHT22;19055;51.064;3.712;2022-10-23T07:15:25;15.90;99.90
32650;DHT22;19055;51.064;3.712;2022-10-23T07:17:51;16.00;99.90
32650;DHT22;19055;51.064;3.712;2022-10-23T07:20:17;16.00;99.90
32650;DHT22;19055;51.064;3.712;2022-10-23T07:22:49;15.90;99.90
32650;DHT22;19055;51.064;3.712;2022-10-23T07:25:17;15.90;99.90
32650;DHT22;19055;51.064;3.712;2022-10-23T07:27:43;16.00;99.90
32650;DHT22;19055;51.064;3.712;2022-10-23T07:30:09;16.10;99.90
32650;DHT22;19055;51.064;3.712;2022-10-23T07:32:44;16.20;99.90
32650;DHT22;19055;51.064;3.712;2022-10-23T07:35:29;16.10;99.90
32650;DHT22;19055;51.064;3.712;2022-10-23T07:38:03;16.10;99.90
32650;DHT22;19055;51.064;3.712;2022-10-23T07:40:32;16.00;99.90
32650;DHT22;19055;51.064;3.712;2022-10-23T07:42:58;16.10;99.90
32650;DHT22;19055;51.064;3.712;2022-10-23T07:45:24;16.20;99.90
32650;DHT22;19055;51.064;3.712;2022-10-23T07:47:51;16.20;99.90
32650;DHT22;19055;51.064;3.712;2022-10-23T07:50:17;16.20;99.90
32650;DHT22;19055;51.064;3.712;2022-10-23T07:52:43;16.30;99.90
32650;DHT22;19055;51.064;3.712;2022-10-23T07:55:11;16.30;99.90
32650;DHT22;19055;51.064;3.712;2022-10-23T07:57:43;16.30;99.90
32650;DHT22;19055;51.064;3.712;2022-10-23T08:00:27;16.30;99.90
32650;DHT22;19055;51.064;3.712;2022-10-23T08:03:03;16.40;99.90
32650;DHT22;19055;51.064;3.712;2022-10-23T08:05:31;16.60;99.90
32650;DHT22;19055;51.064;3.712;2022-10-23T08:07:59;16.80;99.90
32650;DHT22;19055;51.064;3.712;2022-10-23T08:10:25;16.90;99.90
32650;DHT22;19055;51.064;3.712;2022-10-23T08:12:51;17.00;99.90
32650;DHT22;19055;51.064;3.712;2022-10-23T08:15:20;17.00;99.90
32650;DHT22;19055;51.064;3.712;2022-10-23T08:17:52;16.90;99.90
32650;DHT22;19055;51.064;3.712;2022-10-23T08:20:40;17.00;99.90
32650;DHT22;19055;51.064;3.712;2022-10-23T08:23:07;16.90;99.90
32650;DHT22;19055;51.064;3.712;2022-10-23T08:25:34;16.80;99.90
32650;DHT22;19055;51.064;3.712;2022-10-23T08:27:59;16.70;99.90
32650;DHT22;19055;51.064;3.712;2022-10-23T08:30:26;16.70;99.90
32650;DHT22;19055;51.064;3.712;2022-10-23T08:32:51;16.70;99.90
32650;DHT22;19055;51.064;3.712;2022-10-23T08:35:17;16.70;99.90
32650;DHT22;19055;51.064;3.712;2022-10-23T08:37:43;16.70;99.90
32650;DHT22;19055;51.064;3.712;2022-10-23T08:40:13;16.80;99.90
32650;DHT22;19055;51.064;3.712;2022-10-23T08:45:44;16.80;99.90
32650;DHT22;19055;51.064;3.712;2022-10-23T08:48:39;16.80;99.90
32650;DHT22;19055;51.064;3.712;2022-10-23T08:51:34;16.90;99.90
32650;DHT22;19055;51.064;3.712;2022-10-23T08:56:32;16.80;99.90
32650;DHT22;19055;51.064;3.712;2022-10-23T09:01:41;16.80;99.90
32650;DHT22;19055;51.064;3.712;2022-10-23T09:04:08;16.90;99.90
32650;DHT22;19055;51.064;3.712;2022-10-23T09:06:38;16.90;99.90
32650;DHT22;19055;51.064;3.712;2022-10-23T09:14:23;16.90;99.90
32650;DHT22;19055;51.064;3.712;2022-10-23T09:19:20;16.70;99.90
32650;DHT22;19055;51.064;3.712;2022-10-23T09:21:46;16.60;99.90
32650;DHT22;19055;51.064;3.712;2022-10-23T09:24:15;16.40;99.90
32650;DHT22;19055;51.064;3.712;2022-10-23T09:26:45;16.60;99.90
32650;DHT22;19055;51.064;3.712;2022-10-23T09:29:33;16.80;99.90
32650;DHT22;19055;51.064;3.712;2022-10-23T09:32:01;16.80;99.90
32650;DHT22;19055;51.064;3.712;2022-10-23T09:34:28;16.80;99.90
32650;DHT22;19055;51.064;3.712;2022-10-23T09:37:16;16.90;99.90
32650;DHT22;19055;51.064;3.712;2022-10-23T09:39:44;16.90;99.90
32650;DHT22;19055;51.064;3.712;2022-10-23T09:42:23;16.90;99.90
32650;DHT22;19055;51.064;3.712;2022-10-23T09:44:50;16.90;99.90
32650;DHT22;19055;51.064;3.712;2022-10-23T09:47:18;16.90;99.90
32650;DHT22;19055;51.064;3.712;2022-10-23T09:49:49;17.00;99.90
32650;DHT22;19055;51.064;3.712;2022-10-23T09:54:45;17.20;99.90
32650;DHT22;19055;51.064;3.712;2022-10-23T09:57:22;17.40;99.90
32650;DHT22;19055;51.064;3.712;2022-10-23T09:59:59;17.40;99.90
32650;DHT22;19055;51.064;3.712;2022-10-23T10:02:33;17.50;99.90
32650;DHT22;19055;51.064;3.712;2022-10-23T10:05:10;17.50;99.90
32650;DHT22;19055;51.064;3.712;2022-10-23T10:07:35;17.40;99.90
32650;DHT22;19055;51.064;3.712;2022-10-23T10:10:06;17.50;99.90
32650;DHT22;19055;51.064;3.712;2022-10-23T10:17:50;17.90;99.90
32650;DHT22;19055;51.064;3.712;2022-10-23T10:23:04;18.20;99.90
32650;DHT22;19055;51.064;3.712;2022-10-23T10:25:41;18.20;99.90
32650;DHT22;19055;51.064;3.712;2022-10-23T10:28:20;18.20;99.90
32650;DHT22;19055;51.064;3.712;2022-10-23T10:35:52;18.40;99.90
32650;DHT22;19055;51.064;3.712;2022-10-23T10:41:14;18.30;99.90
32650;DHT22;19055;51.064;3.712;2022-10-23T10:57:12;19.30;99.90
32650;DHT22;19055;51.064;3.712;2022-10-23T10:59:41;19.40;99.90
32650;DHT22;19055;51.064;3.712;2022-10-23T11:02:22;19.70;99.90
32650;DHT22;19055;51.064;3.712;2022-10-23T11:04:51;19.90;99.90
32650;DHT22;19055;51.064;3.712;2022-10-23T11:07:24;20.20;99.90
32650;DHT22;19055;51.064;3.712;2022-10-23T11:09:51;20.30;99.90
32650;DHT22;19055;51.064;3.712;2022-10-23T11:12:20;20.30;99.90
32650;DHT22;19055;51.064;3.712;2022-10-23T11:14:46;20.40;99.90
32650;DHT22;19055;51.064;3.712;2022-10-23T11:17:14;20.50;99.90
32650;DHT22;19055;51.064;3.712;2022-10-23T11:19:44;20.50;99.90
32650;DHT22;19055;51.064;3.712;2022-10-23T11:22:45;20.60;99.90
32650;DHT22;19055;51.064;3.712;2022-10-23T11:30:16;21.10;99.90
32650;DHT22;19055;51.064;3.712;2022-10-23T11:38:04;21.10;99.90
32650;DHT22;19055;51.064;3.712;2022-10-23T11:40:32;21.30;99.90
32650;DHT22;19055;51.064;3.712;2022-10-23T11:42:58;21.50;99.90
32650;DHT22;19055;51.064;3.712;2022-10-23T11:48:00;21.90;99.90
32650;DHT22;19055;51.064;3.712;2022-10-23T11:53:23;21.90;99.50
32650;DHT22;19055;51.064;3.712;2022-10-23T11:55:57;22.00;99.30
32650;DHT22;19055;51.064;3.712;2022-10-23T11:58:24;22.10;99.20
32650;DHT22;19055;51.064;3.712;2022-10-23T12:03:22;22.10;98.70
32650;DHT22;19055;51.064;3.712;2022-10-23T12:05:55;22.10;98.60
32650;DHT22;19055;51.064;3.712;2022-10-23T12:08:22;22.00;98.60
32650;DHT22;19055;51.064;3.712;2022-10-23T12:10:50;22.00;98.60
32650;DHT22;19055;51.064;3.712;2022-10-23T12:15:53;22.20;98.00
32650;DHT22;19055;51.064;3.712;2022-10-23T12:18:20;22.30;97.70
32650;DHT22;19055;51.064;3.712;2022-10-23T12:20:50;22.20;97.60
32650;DHT22;19055;51.064;3.712;2022-10-23T12:23:25;22.30;97.60
32650;DHT22;19055;51.064;3.712;2022-10-23T12:25:56;22.40;97.40
32650;DHT22;19055;51.064;3.712;2022-10-23T12:33:34;22.80;96.30
32650;DHT22;19055;51.064;3.712;2022-10-23T12:38:27;22.60;96.30
32650;DHT22;19055;51.064;3.712;2022-10-23T12:41:10;22.70;96.00
32650;DHT22;19055;51.064;3.712;2022-10-23T12:43:37;23.00;95.80
32650;DHT22;19055;51.064;3.712;2022-10-23T12:46:04;23.10;95.30
32650;DHT22;19055;51.064;3.712;2022-10-23T12:48:32;23.20;94.60
32650;DHT22;19055;51.064;3.712;2022-10-23T12:50:58;23.30;94.30
32650;DHT22;19055;51.064;3.712;2022-10-23T12:53:23;23.30;94.00
32650;DHT22;19055;51.064;3.712;2022-10-23T12:56:02;23.30;94.10
32650;DHT22;19055;51.064;3.712;2022-10-23T12:58:30;23.30;94.00
32650;DHT22;19055;51.064;3.712;2022-10-23T13:01:00;23.10;94.00
32650;DHT22;19055;51.064;3.712;2022-10-23T13:03:27;23.20;93.70
32650;DHT22;19055;51.064;3.712;2022-10-23T13:05:53;23.10;93.80
32650;DHT22;19055;51.064;3.712;2022-10-23T13:08:20;23.00;94.00
32650;DHT22;19055;51.064;3.712;2022-10-23T13:11:07;22.90;94.10
32650;DHT22;19055;51.064;3.712;2022-10-23T13:13:37;22.80;94.10
32650;DHT22;19055;51.064;3.712;2022-10-23T13:16:11;22.70;94.40
32650;DHT22;19055;51.064;3.712;2022-10-23T13:18:41;22.70;94.50
32650;DHT22;19055;51.064;3.712;2022-10-23T13:21:09;22.80;94.30
32650;DHT22;19055;51.064;3.712;2022-10-23T13:23:38;22.80;94.30
32650;DHT22;19055;51.064;3.712;2022-10-23T13:26:19;22.90;94.10
32650;DHT22;19055;51.064;3.712;2022-10-23T13:28:46;23.00;94.00
32650;DHT22;19055;51.064;3.712;2022-10-23T13:33:41;23.00;94.10
32650;DHT22;19055;51.064;3.712;2022-10-23T13:38:39;22.80;94.40
32650;DHT22;19055;51.064;3.712;2022-10-23T13:41:10;22.80;94.30
32650;DHT22;19055;51.064;3.712;2022-10-23T13:43:37;22.70;94.50
32650;DHT22;19055;51.064;3.712;2022-10-23T13:46:02;22.70;94.50
32650;DHT22;19055;51.064;3.712;2022-10-23T13:48:29;22.80;94.50
32650;DHT22;19055;51.064;3.712;2022-10-23T13:53:41;22.60;94.60
32650;DHT22;19055;51.064;3.712;2022-10-23T13:56:08;22.60;94.60
32650;DHT22;19055;51.064;3.712;2022-10-23T13:58:34;22.50;94.50
32650;DHT22;19055;51.064;3.712;2022-10-23T14:01:00;22.40;94.70
32650;DHT22;19055;51.064;3.712;2022-10-23T14:03:26;22.40;94.70
32650;DHT22;19055;51.064;3.712;2022-10-23T14:05:52;22.40;94.60
32650;DHT22;19055;51.064;3.712;2022-10-23T14:08:17;22.30;94.70
32650;DHT22;19055;51.064;3.712;2022-10-23T14:10:43;22.30;94.80
32650;DHT22;19055;51.064;3.712;2022-10-23T14:13:09;22.10;95.00
32650;DHT22;19055;51.064;3.712;2022-10-23T14:15:35;22.10;95.20
32650;DHT22;19055;51.064;3.712;2022-10-23T14:18:01;22.00;95.20
32650;DHT22;19055;51.064;3.712;2022-10-23T14:20:27;21.90;95.20
32650;DHT22;19055;51.064;3.712;2022-10-23T14:22:53;21.90;95.40
32650;DHT22;19055;51.064;3.712;2022-10-23T14:25:18;21.90;95.50
32650;DHT22;19055;51.064;3.712;2022-10-23T14:27:44;21.80;95.70
32650;DHT22;19055;51.064;3.712;2022-10-23T14:30:10;21.70;95.80
32650;DHT22;19055;51.064;3.712;2022-10-23T14:32:36;21.60;96.00
32650;DHT22;19055;51.064;3.712;2022-10-23T14:35:02;21.60;96.20
32650;DHT22;19055;51.064;3.712;2022-10-23T14:37:29;21.50;96.40
32650;DHT22;19055;51.064;3.712;2022-10-23T14:39:55;21.40;96.50
32650;DHT22;19055;51.064;3.712;2022-10-23T14:42:21;21.50;96.50
32650;DHT22;19055;51.064;3.712;2022-10-23T14:44:53;21.50;96.50
32650;DHT22;19055;51.064;3.712;2022-10-23T14:47:19;21.20;97.20
32650;DHT22;19055;51.064;3.712;2022-10-23T14:49:45;21.10;97.40
32650;DHT22;19055;51.064;3.712;2022-10-23T14:52:12;21.00;97.60
32650;DHT22;19055;51.064;3.712;2022-10-23T14:54:38;21.00;97.90
32650;DHT22;19055;51.064;3.712;2022-10-23T14:57:03;21.10;97.70
32650;DHT22;19055;51.064;3.712;2022-10-23T14:59:29;21.10;97.60
32650;DHT22;19055;51.064;3.712;2022-10-23T15:01:55;21.00;97.70
32650;DHT22;19055;51.064;3.712;2022-10-23T15:04:21;21.00;97.90
32650;DHT22;19055;51.064;3.712;2022-10-23T15:06:47;20.80;98.20
32650;DHT22;19055;51.064;3.712;2022-10-23T15:09:13;20.90;98.20
32650;DHT22;19055;51.064;3.712;2022-10-23T15:11:43;20.90;98.00
32650;DHT22;19055;51.064;3.712;2022-10-23T15:14:09;21.00;98.10
32650;DHT22;19055;51.064;3.712;2022-10-23T15:16:35;21.10;98.00
32650;DHT22;19055;51.064;3.712;2022-10-23T15:19:06;21.20;97.80
32650;DHT22;19055;51.064;3.712;2022-10-23T15:21:32;21.30;97.70
32650;DHT22;19055;51.064;3.712;2022-10-23T15:23:59;21.30;97.60
32650;DHT22;19055;51.064;3.712;2022-10-23T15:26:24;21.40;97.60
32650;DHT22;19055;51.064;3.712;2022-10-23T15:28:54;21.50;97.50
32650;DHT22;19055;51.064;3.712;2022-10-23T15:34:08;21.50;97.20
32650;DHT22;19055;51.064;3.712;2022-10-23T15:36:34;21.60;97.10
32650;DHT22;19055;51.064;3.712;2022-10-23T15:39:00;21.60;97.10
32650;DHT22;19055;51.064;3.712;2022-10-23T15:41:27;21.60;97.10
32650;DHT22;19055;51.064;3.712;2022-10-23T15:43:53;21.50;97.20
32650;DHT22;19055;51.064;3.712;2022-10-23T15:46:22;21.40;97.30
32650;DHT22;19055;51.064;3.712;2022-10-23T15:48:47;21.30;97.50
32650;DHT22;19055;51.064;3.712;2022-10-23T15:51:13;21.10;98.00
32650;DHT22;19055;51.064;3.712;2022-10-23T15:53:39;21.00;98.20
32650;DHT22;19055;51.064;3.712;2022-10-23T15:56:04;20.80;98.60
32650;DHT22;19055;51.064;3.712;2022-10-23T15:58:30;20.60;99.10
32650;DHT22;19055;51.064;3.712;2022-10-23T16:00:56;20.50;99.40
32650;DHT22;19055;51.064;3.712;2022-10-23T16:03:23;20.60;99.30
32650;DHT22;19055;51.064;3.712;2022-10-23T16:05:49;20.40;99.50
32650;DHT22;19055;51.064;3.712;2022-10-23T16:08:15;20.40;99.70
32650;DHT22;19055;51.064;3.712;2022-10-23T16:10:40;20.30;99.90
32650;DHT22;19055;51.064;3.712;2022-10-23T16:13:06;20.10;99.90
32650;DHT22;19055;51.064;3.712;2022-10-23T16:15:35;20.00;99.90
32650;DHT22;19055;51.064;3.712;2022-10-23T16:18:01;20.00;99.90
32650;DHT22;19055;51.064;3.712;2022-10-23T16:20:30;20.00;99.90
32650;DHT22;19055;51.064;3.712;2022-10-23T16:22:56;19.80;99.90
32650;DHT22;19055;51.064;3.712;2022-10-23T16:25:22;19.70;99.90
32650;DHT22;19055;51.064;3.712;2022-10-23T16:27:47;19.80;99.90
32650;DHT22;19055;51.064;3.712;2022-10-23T16:30:13;19.90;99.90
32650;DHT22;19055;51.064;3.712;2022-10-23T16:32:40;20.00;99.90
32650;DHT22;19055;51.064;3.712;2022-10-23T16:35:06;19.90;99.90
32650;DHT22;19055;51.064;3.712;2022-10-23T16:37:42;19.90;99.90
32650;DHT22;19055;51.064;3.712;2022-10-23T16:40:12;19.90;99.90
32650;DHT22;19055;51.064;3.712;2022-10-23T16:42:57;20.00;99.90
32650;DHT22;19055;51.064;3.712;2022-10-23T16:45:32;19.90;99.90
32650;DHT22;19055;51.064;3.712;2022-10-23T16:47:58;19.80;99.90
32650;DHT22;19055;51.064;3.712;2022-10-23T16:50:23;19.80;99.90
32650;DHT22;19055;51.064;3.712;2022-10-23T16:52:50;19.70;99.90
32650;DHT22;19055;51.064;3.712;2022-10-23T16:55:15;19.80;99.90
32650;DHT22;19055;51.064;3.712;2022-10-23T16:57:41;19.90;99.90
32650;DHT22;19055;51.064;3.712;2022-10-23T17:00:07;19.80;99.90
32650;DHT22;19055;51.064;3.712;2022-10-23T17:02:32;19.80;99.90
32650;DHT22;19055;51.064;3.712;2022-10-23T17:04:58;19.80;99.90
32650;DHT22;19055;51.064;3.712;2022-10-23T17:07:24;19.80;99.90
32650;DHT22;19055;51.064;3.712;2022-10-23T17:09:50;19.80;99.90
32650;DHT22;19055;51.064;3.712;2022-10-23T17:12:16;19.70;99.90
32650;DHT22;19055;51.064;3.712;2022-10-23T17:14:41;19.70;99.90
32650;DHT22;19055;51.064;3.712;2022-10-23T17:17:07;19.70;99.90
32650;DHT22;19055;51.064;3.712;2022-10-23T17:19:34;19.80;99.90
32650;DHT22;19055;51.064;3.712;2022-10-23T17:22:01;19.90;99.90
32650;DHT22;19055;51.064;3.712;2022-10-23T17:24:26;19.90;99.90
32650;DHT22;19055;51.064;3.712;2022-10-23T17:26:52;20.00;99.90
32650;DHT22;19055;51.064;3.712;2022-10-23T17:29:19;20.10;99.90
32650;DHT22;19055;51.064;3.712;2022-10-23T17:31:46;20.30;99.90
32650;DHT22;19055;51.064;3.712;2022-10-23T17:34:13;20.30;99.90
32650;DHT22;19055;51.064;3.712;2022-10-23T17:36:40;20.40;99.90
32650;DHT22;19055;51.064;3.712;2022-10-23T17:39:08;20.50;99.90
32650;DHT22;19055;51.064;3.712;2022-10-23T17:41:34;20.60;99.90
32650;DHT22;19055;51.064;3.712;2022-10-23T17:44:00;20.70;99.90
32650;DHT22;19055;51.064;3.712;2022-10-23T17:46:26;20.80;99.90